Time;durP1;ratioP1;P1;durP2;ratioP2;P2;SDS_P1;SDS_P2;PMS_P1;PMS_P2;Temp;Humidity;BMP_temperature;BMP_pressure;BME280_temperature;BME280_humidity;BME280_pressure;Samples;Min_cycle;Max_cycle;Signal;HPM_P1;HPM_P2
2024/04/07 00:01:31;;;;;;;12.40;6.60;;;;;;;;;;103739;1292;545929;-71
2024/04/07 00:05:07;;;;;;;11.30;6.70;;;;;;;;;;103624;1292;545458;-70
2024/04/07 00:08:48;;;;;;;12.30;7.00;;;;;;;;;;103736;1292;544999;-72
2024/04/07 00:12:22;;;;;;;10.60;6.00;;;;;;;;;;103768;1290;545121;-74
2024/04/07 00:16:00;;;;;;;11.80;6.20;;;;;;;;;;103853;1289;545572;-71
2024/04/07 00:19:37;;;;;;;12.10;6.10;;;;;;;;;;103702;1292;545057;-71
2024/04/07 00:23:14;;;;;;;11.50;6.10;;;;;;;;;;104100;1289;544722;-70
2024/04/07 00:26:52;;;;;;;13.10;6.50;;;;;;;;;;103802;1289;545022;-70
2024/04/07 00:30:29;;;;;;;11.90;6.60;;;;;;;;;;103625;1292;544951;-69
2024/04/07 00:34:07;;;;;;;11.10;5.80;;;;;;;;;;103460;1298;545549;-70
2024/04/07 00:37:45;;;;;;;11.60;6.30;;;;;;;;;;104035;1286;544976;-71
2024/04/07 00:41:18;;;;;;;12.20;6.70;;;;;;;;;;103925;1289;544867;-70
2024/04/07 00:45:00;;;;;;;14.20;7.40;;;;;;;;;;103823;1289;545288;-73
2024/04/07 00:48:37;;;;;;;16.00;9.10;;;;;;;;;;103718;1293;545579;-71
2024/04/07 00:52:15;;;;;;;14.40;8.40;;;;;;;;;;103817;1291;544764;-69
2024/04/07 00:55:52;;;;;;;13.80;7.70;;;;;;;;;;103675;1292;546282;-70
2024/04/07 00:59:31;;;;;;;12.40;7.10;;;;;;;;;;103667;1291;545669;-70
2024/04/07 01:03:08;;;;;;;11.80;6.00;;;;;;;;;;103692;1291;545902;-70
2024/04/07 01:06:45;;;;;;;10.10;5.30;;;;;;;;;;103628;1293;545403;-70
2024/04/07 01:10:22;;;;;;;10.70;4.30;;;;;;;;;;103785;1292;545536;-75
2024/04/07 01:14:01;;;;;;;9.80;4.30;;;;;;;;;;103678;1292;545027;-70
2024/04/07 01:17:37;;;;;;;9.90;4.90;;;;;;;;;;103833;1292;545367;-69
2024/04/07 01:21:15;;;;;;;10.20;4.90;;;;;;;;;;103841;1292;544699;-72
2024/04/07 01:24:51;;;;;;;9.80;5.20;;;;;;;;;;103781;1292;545031;-71
2024/04/07 01:28:30;;;;;;;10.30;4.60;;;;;;;;;;103760;1289;544953;-69
2024/04/07 01:32:07;;;;;;;9.70;4.60;;;;;;;;;;103731;1295;544752;-71
2024/04/07 01:35:46;;;;;;;10.30;4.90;;;;;;;;;;103761;1292;545924;-70
2024/04/07 01:39:22;;;;;;;12.30;5.10;;;;;;;;;;104118;1286;544903;-71
2024/04/07 01:43:01;;;;;;;12.80;5.10;;;;;;;;;;103781;1292;545668;-72
2024/04/07 01:46:37;;;;;;;10.90;4.70;;;;;;;;;;104059;1289;545681;-71
2024/04/07 01:50:11;;;;;;;9.00;4.80;;;;;;;;;;103818;1289;545024;-70
2024/04/07 01:53:51;;;;;;;10.00;5.70;;;;;;;;;;103656;1292;545552;-76
2024/04/07 01:57:30;;;;;;;11.10;5.50;;;;;;;;;;103962;1288;545138;-70
2024/04/07 02:01:07;;;;;;;13.00;5.10;;;;;;;;;;103743;1291;545006;-71
2024/04/07 02:04:45;;;;;;;10.30;5.20;;;;;;;;;;103817;1289;545106;-70
2024/04/07 02:08:22;;;;;;;9.90;5.20;;;;;;;;;;103820;1296;544853;-69
2024/04/07 02:12:00;;;;;;;11.40;5.40;;;;;;;;;;103648;1292;545136;-70
2024/04/07 02:15:36;;;;;;;10.20;5.20;;;;;;;;;;103755;1292;545033;-71
2024/04/07 02:19:15;;;;;;;8.70;4.70;;;;;;;;;;103692;1291;545540;-70
2024/04/07 02:22:51;;;;;;;7.70;4.20;;;;;;;;;;103706;1291;545024;-70
2024/04/07 02:26:30;;;;;;;9.00;4.00;;;;;;;;;;103779;1301;544738;-70
2024/04/07 02:30:08;;;;;;;9.20;4.00;;;;;;;;;;103827;1290;546602;-70
2024/04/07 02:33:47;;;;;;;8.80;4.50;;;;;;;;;;103717;1290;544845;-70
2024/04/07 02:37:21;;;;;;;10.00;5.30;;;;;;;;;;103669;1289;545072;-71
2024/04/07 02:41:00;;;;;;;9.40;5.10;;;;;;;;;;103886;1289;544829;-70
2024/04/07 02:48:14;;;;;;;12.80;7.20;;;;;;;;;;103638;1295;544935;-71
2024/04/07 02:51:51;;;;;;;11.60;7.00;;;;;;;;;;103773;1292;545475;-71
2024/04/07 02:55:29;;;;;;;13.00;7.60;;;;;;;;;;103625;1295;544945;-69
2024/04/07 02:59:06;;;;;;;13.10;7.70;;;;;;;;;;103637;1292;544776;-70
2024/04/07 03:02:44;;;;;;;12.00;7.10;;;;;;;;;;103644;1291;545474;-74
2024/04/07 03:06:22;;;;;;;10.00;5.80;;;;;;;;;;103658;1289;545226;-72
2024/04/07 03:10:00;;;;;;;11.10;6.30;;;;;;;;;;103590;1295;546264;-69
2024/04/07 03:13:36;;;;;;;10.90;5.40;;;;;;;;;;103756;1296;544842;-70
2024/04/07 03:17:14;;;;;;;12.30;5.90;;;;;;;;;;103589;1291;545240;-69
2024/04/07 03:20:51;;;;;;;10.50;5.50;;;;;;;;;;103462;1292;545014;-71
2024/04/07 03:24:35;;;;;;;11.40;5.80;;;;;;;;;;103777;1290;545564;-79
2024/04/07 03:28:06;;;;;;;13.00;6.10;;;;;;;;;;104072;1294;545716;-76
2024/04/07 03:31:44;;;;;;;14.10;6.60;;;;;;;;;;103679;1295;544721;-76
2024/04/07 03:35:21;;;;;;;10.30;5.60;;;;;;;;;;103552;1295;545279;-71
2024/04/07 03:38:59;;;;;;;9.90;5.60;;;;;;;;;;103671;1289;544742;-71
2024/04/07 03:42:32;;;;;;;12.30;6.50;;;;;;;;;;103924;1289;545521;-70
2024/04/07 03:46:14;;;;;;;10.50;5.80;;;;;;;;;;103820;1291;544706;-68
2024/04/07 03:49:51;;;;;;;14.50;6.10;;;;;;;;;;103780;1289;544861;-70
2024/04/07 03:53:29;;;;;;;9.10;5.30;;;;;;;;;;103723;1292;544923;-70
2024/04/07 03:57:06;;;;;;;9.50;4.50;;;;;;;;;;103638;1292;544934;-74
2024/04/07 04:00:44;;;;;;;9.00;4.40;;;;;;;;;;103699;1289;545581;-69
2024/04/07 04:04:21;;;;;;;8.30;4.00;;;;;;;;;;103790;1290;545561;-69
2024/04/07 04:07:59;;;;;;;7.90;3.90;;;;;;;;;;104121;1285;544820;-69
2024/04/07 04:11:36;;;;;;;8.60;3.80;;;;;;;;;;103708;1293;544847;-70
2024/04/07 04:15:14;;;;;;;7.50;3.30;;;;;;;;;;104512;1286;544754;-70
2024/04/07 04:18:54;;;;;;;7.40;3.20;;;;;;;;;;103761;1290;545531;-70
2024/04/07 04:22:29;;;;;;;7.20;3.30;;;;;;;;;;103620;1291;545219;-70
2024/04/07 04:26:06;;;;;;;7.60;3.50;;;;;;;;;;103620;1292;544977;-73
2024/04/07 04:29:44;;;;;;;7.10;3.10;;;;;;;;;;103670;1290;545234;-70
2024/04/07 04:33:22;;;;;;;7.40;3.10;;;;;;;;;;103916;1288;545064;-69
2024/04/07 04:37:00;;;;;;;7.50;3.10;;;;;;;;;;103874;1292;544746;-70
2024/04/07 04:40:36;;;;;;;8.20;3.10;;;;;;;;;;103719;1292;545532;-70
2024/04/07 04:44:15;;;;;;;7.60;3.00;;;;;;;;;;103831;1289;546075;-70
2024/04/07 04:47:51;;;;;;;6.80;3.10;;;;;;;;;;103684;1291;544792;-70
2024/04/07 04:51:28;;;;;;;7.50;3.30;;;;;;;;;;103742;1289;545676;-71
2024/04/07 04:55:06;;;;;;;7.40;3.30;;;;;;;;;;103674;1294;545883;-70
2024/04/07 04:58:44;;;;;;;8.10;3.60;;;;;;;;;;103809;1295;544714;-70
2024/04/07 05:02:21;;;;;;;8.10;3.60;;;;;;;;;;103788;1293;545603;-73
2024/04/07 05:06:05;;;;;;;8.20;3.90;;;;;;;;;;103920;1288;546493;-75
2024/04/07 05:09:35;;;;;;;8.10;3.40;;;;;;;;;;103651;1292;545193;-69
2024/04/07 05:13:14;;;;;;;7.90;3.40;;;;;;;;;;103597;1291;545121;-71
2024/04/07 05:16:51;;;;;;;8.50;3.60;;;;;;;;;;103778;1295;546240;-70
2024/04/07 05:20:29;;;;;;;10.50;4.00;;;;;;;;;;103669;1301;545537;-70
2024/04/07 05:24:09;;;;;;;8.20;3.70;;;;;;;;;;103769;1297;544807;-70
2024/04/07 05:27:44;;;;;;;8.90;3.70;;;;;;;;;;104405;1282;544962;-71
2024/04/07 05:31:21;;;;;;;8.10;3.40;;;;;;;;;;103857;1296;544834;-71
2024/04/07 05:34:59;;;;;;;8.70;3.40;;;;;;;;;;103796;1289;544738;-70
2024/04/07 05:38:36;;;;;;;8.40;3.10;;;;;;;;;;103724;1296;545091;-70
2024/04/07 05:42:14;;;;;;;9.30;3.40;;;;;;;;;;103851;1292;544926;-74
2024/04/07 05:45:51;;;;;;;6.30;2.90;;;;;;;;;;103467;1292;544975;-71
2024/04/07 05:49:32;;;;;;;7.70;3.00;;;;;;;;;;103818;1290;544958;-76
2024/04/07 05:53:05;;;;;;;8.40;3.30;;;;;;;;;;104021;1289;545566;-71
2024/04/07 05:56:44;;;;;;;7.20;3.10;;;;;;;;;;103953;1292;545454;-72
2024/04/07 06:00:22;;;;;;;7.80;3.50;;;;;;;;;;103939;1288;545345;-69
2024/04/07 06:03:58;;;;;;;8.50;3.20;;;;;;;;;;103773;1294;544956;-71
2024/04/07 06:07:35;;;;;;;7.80;2.90;;;;;;;;;;103950;1290;545390;-72
2024/04/07 06:11:13;;;;;;;9.60;3.20;;;;;;;;;;103858;1288;544780;-71
2024/04/07 06:14:50;;;;;;;7.30;3.00;;;;;;;;;;103867;1289;546147;-71
2024/04/07 06:18:28;;;;;;;6.50;2.70;;;;;;;;;;103791;1288;545058;-71
2024/04/07 06:22:05;;;;;;;7.70;3.70;;;;;;;;;;103699;1292;545414;-72
2024/04/07 06:25:43;;;;;;;9.00;3.80;;;;;;;;;;103796;1293;544958;-76
2024/04/07 06:29:20;;;;;;;7.00;3.60;;;;;;;;;;103909;1301;545027;-77
2024/04/07 06:32:58;;;;;;;11.30;4.20;;;;;;;;;;104680;1282;544957;-71
2024/04/07 06:36:35;;;;;;;7.70;3.20;;;;;;;;;;103739;1291;544860;-77
2024/04/07 06:40:13;;;;;;;8.60;2.90;;;;;;;;;;104181;1286;545628;-76
2024/04/07 06:43:50;;;;;;;5.50;2.30;;;;;;;;;;103867;1290;544785;-74
2024/04/07 06:47:29;;;;;;;5.20;2.20;;;;;;;;;;103770;1291;545225;-70
2024/04/07 06:51:06;;;;;;;4.80;1.80;;;;;;;;;;103780;1293;545486;-72
2024/04/07 06:54:43;;;;;;;4.80;2.10;;;;;;;;;;103883;1299;544975;-75
2024/04/07 06:58:20;;;;;;;5.50;2.10;;;;;;;;;;103819;1289;545039;-73
2024/04/07 07:01:58;;;;;;;4.60;2.10;;;;;;;;;;103830;1292;545446;-75
2024/04/07 07:05:40;;;;;;;6.00;1.90;;;;;;;;;;104069;1284;545225;-70
2024/04/07 07:09:13;;;;;;;5.80;1.90;;;;;;;;;;104512;1286;544666;-78
2024/04/07 07:12:49;;;;;;;6.50;2.20;;;;;;;;;;104167;1289;545039;-70
2024/04/07 07:16:27;;;;;;;4.80;1.80;;;;;;;;;;103840;1295;544930;-73
2024/04/07 07:20:00;;;;;;;4.80;2.00;;;;;;;;;;103979;1290;545601;-71
2024/04/07 07:23:38;;;;;;;6.20;2.20;;;;;;;;;;104569;1289;545019;-70
2024/04/07 07:27:15;;;;;;;5.60;2.10;;;;;;;;;;103901;1293;544889;-71
2024/04/07 07:30:57;;;;;;;6.90;2.10;;;;;;;;;;103754;1292;544707;-71
2024/04/07 07:34:35;;;;;;;5.50;2.10;;;;;;;;;;103680;1295;545587;-73
2024/04/07 07:38:12;;;;;;;5.80;2.10;;;;;;;;;;103929;1294;545148;-74
2024/04/07 07:41:50;;;;;;;7.20;2.10;;;;;;;;;;103869;1289;545918;-69
2024/04/07 07:45:27;;;;;;;5.40;1.80;;;;;;;;;;103801;1290;545574;-69
2024/04/07 07:49:05;;;;;;;8.90;1.90;;;;;;;;;;103648;1292;544968;-73
2024/04/07 07:52:42;;;;;;;6.20;1.70;;;;;;;;;;103605;1296;545596;-70
2024/04/07 07:56:20;;;;;;;5.70;1.80;;;;;;;;;;103685;1292;545674;-71
2024/04/07 07:59:56;;;;;;;4.80;1.90;;;;;;;;;;103723;1289;544628;-70
2024/04/07 08:03:35;;;;;;;10.10;2.00;;;;;;;;;;104438;1284;545495;-69
2024/04/07 08:07:12;;;;;;;5.60;1.60;;;;;;;;;;104408;1285;544931;-71
2024/04/07 08:10:49;;;;;;;7.30;1.70;;;;;;;;;;103687;1292;545578;-68
2024/04/07 08:14:23;;;;;;;8.80;1.80;;;;;;;;;;103829;1291;544928;-71
2024/04/07 08:18:06;;;;;;;5.10;1.90;;;;;;;;;;103929;1291;545738;-75
2024/04/07 08:21:42;;;;;;;4.70;1.70;;;;;;;;;;103734;1295;544847;-68
2024/04/07 08:25:19;;;;;;;8.70;1.80;;;;;;;;;;103776;1292;545022;-68
2024/04/07 08:28:57;;;;;;;5.60;2.10;;;;;;;;;;103768;1289;544951;-70
2024/04/07 08:32:30;;;;;;;7.00;2.00;;;;;;;;;;103423;1291;545609;-73
2024/04/07 08:36:12;;;;;;;5.30;1.80;;;;;;;;;;103749;1292;544468;-69
2024/04/07 08:39:49;;;;;;;6.00;1.60;;;;;;;;;;103742;1292;545722;-69
2024/04/07 08:43:27;;;;;;;5.50;1.80;;;;;;;;;;103787;1289;544938;-68
2024/04/07 08:47:05;;;;;;;4.50;2.00;;;;;;;;;;103688;1291;547077;-74
2024/04/07 08:50:42;;;;;;;5.20;1.70;;;;;;;;;;103865;1290;544724;-76
2024/04/07 08:54:19;;;;;;;4.60;1.60;;;;;;;;;;104102;1288;545538;-77
2024/04/07 08:57:57;;;;;;;5.80;2.10;;;;;;;;;;104565;1283;544830;-71
2024/04/07 09:01:36;;;;;;;5.10;1.70;;;;;;;;;;103821;1295;545540;-68
2024/04/07 09:05:11;;;;;;;5.30;1.90;;;;;;;;;;103781;1291;547205;-77
2024/04/07 09:08:49;;;;;;;4.50;1.60;;;;;;;;;;103649;1292;545510;-70
2024/04/07 09:12:27;;;;;;;5.40;1.70;;;;;;;;;;103820;1292;545114;-69
2024/04/07 09:16:04;;;;;;;3.50;1.40;;;;;;;;;;103819;1292;544734;-73
2024/04/07 09:19:38;;;;;;;5.20;1.60;;;;;;;;;;103723;1289;545005;-77
2024/04/07 09:23:21;;;;;;;7.30;1.90;;;;;;;;;;103770;1290;544838;-71
2024/04/07 09:27:00;;;;;;;6.00;1.70;;;;;;;;;;104030;1289;545630;-77
2024/04/07 09:30:34;;;;;;;6.90;1.50;;;;;;;;;;103932;1289;546055;-71
2024/04/07 09:34:11;;;;;;;4.50;1.80;;;;;;;;;;104299;1289;545865;-78
2024/04/07 09:37:49;;;;;;;6.00;1.60;;;;;;;;;;103634;1295;544856;-74
2024/04/07 09:41:28;;;;;;;10.60;1.50;;;;;;;;;;103633;1295;544708;-69
2024/04/07 09:45:09;;;;;;;5.10;1.40;;;;;;;;;;103776;1289;545033;-72
2024/04/07 09:48:42;;;;;;;4.70;1.20;;;;;;;;;;103850;1289;545050;-75
2024/04/07 09:52:21;;;;;;;4.00;1.90;;;;;;;;;;103729;1288;545048;-69
2024/04/07 09:55:55;;;;;;;16.70;1.90;;;;;;;;;;103725;1290;545024;-75
2024/04/07 09:59:35;;;;;;;12.20;2.00;;;;;;;;;;103676;1295;544766;-76
2024/04/07 10:03:11;;;;;;;10.50;1.80;;;;;;;;;;103436;1294;545527;-71
2024/04/07 10:06:49;;;;;;;8.80;2.00;;;;;;;;;;103785;1289;545026;-69
2024/04/07 10:10:26;;;;;;;15.10;2.00;;;;;;;;;;103903;1292;545585;-69
2024/04/07 10:14:13;;;;;;;26.30;3.00;;;;;;;;;;103716;1290;544955;-73
2024/04/07 10:17:42;;;;;;;22.20;2.60;;;;;;;;;;103714;1291;545126;-71
2024/04/07 10:21:21;;;;;;;13.40;2.20;;;;;;;;;;103746;1291;545013;-68
2024/04/07 10:25:00;;;;;;;17.10;3.10;;;;;;;;;;103639;1295;544908;-70
2024/04/07 10:28:47;;;;;;;12.20;2.30;;;;;;;;;;103621;1291;545123;-77
2024/04/07 10:32:38;;;;;;;8.70;1.60;;;;;;;;;;104453;1283;545697;-69
2024/04/07 10:36:10;;;;;;;7.10;1.80;;;;;;;;;;103966;1286;544614;-69
2024/04/07 10:39:29;;;;;;;7.40;1.70;;;;;;;;;;103561;1292;545059;-71
2024/04/07 10:43:03;;;;;;;3.50;1.50;;;;;;;;;;103778;1289;545493;-68
2024/04/07 10:46:43;;;;;;;7.80;2.00;;;;;;;;;;103696;1289;546102;-69
2024/04/07 10:50:19;;;;;;;5.20;1.30;;;;;;;;;;103600;1291;545547;-73
2024/04/07 10:53:57;;;;;;;4.60;1.70;;;;;;;;;;104031;1292;544745;-73
2024/04/07 10:57:34;;;;;;;3.80;1.20;;;;;;;;;;103779;1289;544879;-79
2024/04/07 11:01:12;;;;;;;6.80;1.80;;;;;;;;;;103772;1296;545932;-69
2024/04/07 11:04:49;;;;;;;4.20;1.60;;;;;;;;;;103591;1292;545011;-77
2024/04/07 11:08:48;;;;;;;4.70;1.70;;;;;;;;;;103681;1295;548103;-72
2024/04/07 11:12:00;;;;;;;4.90;1.60;;;;;;;;;;103772;1291;544906;-74
2024/04/07 11:15:42;;;;;;;8.10;1.80;;;;;;;;;;103764;1299;545957;-69
2024/04/07 11:19:18;;;;;;;5.20;1.80;;;;;;;;;;103530;1298;544816;-68
2024/04/07 11:22:56;;;;;;;5.70;1.30;;;;;;;;;;103840;1289;545031;-74
2024/04/07 11:26:34;;;;;;;5.90;1.70;;;;;;;;;;103708;1290;544994;-70
2024/04/07 11:30:11;;;;;;;4.40;1.40;;;;;;;;;;103685;1291;545523;-69
2024/04/07 11:34:08;;;;;;;13.40;1.90;;;;;;;;;;103647;1296;546341;-80
2024/04/07 11:37:27;;;;;;;9.20;1.60;;;;;;;;;;103644;1292;545533;-69
2024/04/07 11:41:04;;;;;;;3.90;1.70;;;;;;;;;;103664;1291;545234;-70
2024/04/07 11:44:42;;;;;;;6.20;1.80;;;;;;;;;;103829;1301;544943;-71
2024/04/07 11:48:19;;;;;;;5.70;1.70;;;;;;;;;;103863;1289;544966;-80
2024/04/07 11:51:57;;;;;;;5.30;1.40;;;;;;;;;;103700;1291;544977;-73
2024/04/07 11:55:34;;;;;;;5.40;1.60;;;;;;;;;;103921;1290;544855;-69
2024/04/07 11:59:12;;;;;;;3.80;1.40;;;;;;;;;;103605;1291;545777;-69
2024/04/07 12:02:49;;;;;;;3.30;1.50;;;;;;;;;;103762;1291;545689;-68
2024/04/07 12:06:27;;;;;;;4.00;1.60;;;;;;;;;;103732;1295;546037;-69
2024/04/07 12:10:04;;;;;;;4.10;1.50;;;;;;;;;;103775;1292;545273;-71
2024/04/07 12:13:43;;;;;;;7.70;4.10;;;;;;;;;;103812;1289;545013;-72
2024/04/07 12:17:15;;;;;;;8.90;3.70;;;;;;;;;;104192;1285;545805;-72
2024/04/07 12:20:58;;;;;;;7.20;3.10;;;;;;;;;;103634;1291;547844;-73
2024/04/07 12:24:33;;;;;;;5.40;2.60;;;;;;;;;;103750;1289;545381;-72
2024/04/07 12:28:07;;;;;;;5.80;3.00;;;;;;;;;;103781;1291;545031;-73
2024/04/07 12:31:49;;;;;;;12.20;7.90;;;;;;;;;;103615;1293;546056;-73
2024/04/07 12:35:26;;;;;;;6.40;2.90;;;;;;;;;;104446;1291;545092;-76
2024/04/07 12:39:04;;;;;;;6.10;2.90;;;;;;;;;;104026;1289;545021;-69
2024/04/07 12:42:39;;;;;;;6.80;3.10;;;;;;;;;;103817;1293;544946;-70
2024/04/07 12:46:18;;;;;;;51.80;32.00;;;;;;;;;;103864;1291;544756;-75
2024/04/07 12:49:56;;;;;;;5.90;2.70;;;;;;;;;;103945;1289;544820;-72
2024/04/07 12:53:33;;;;;;;4.70;2.00;;;;;;;;;;103736;1293;544896;-72
2024/04/07 12:57:11;;;;;;;5.60;2.10;;;;;;;;;;103818;1301;544788;-72
2024/04/07 13:00:48;;;;;;;17.30;10.80;;;;;;;;;;103808;1288;545693;-73
2024/04/07 13:04:26;;;;;;;5.20;2.50;;;;;;;;;;103564;1294;545982;-78
2024/04/07 13:08:03;;;;;;;14.40;8.20;;;;;;;;;;103750;1292;544902;-71
2024/04/07 13:11:41;;;;;;;6.30;2.10;;;;;;;;;;103994;1288;544979;-79
2024/04/07 13:15:18;;;;;;;14.80;3.80;;;;;;;;;;103675;1292;544825;-72
2024/04/07 13:18:56;;;;;;;9.10;3.00;;;;;;;;;;103709;1292;545752;-74
2024/04/07 13:22:33;;;;;;;11.30;4.00;;;;;;;;;;103882;1292;544994;-78
2024/04/07 13:26:11;;;;;;;5.70;2.60;;;;;;;;;;103790;1295;545904;-73
2024/04/07 13:29:44;;;;;;;4.80;2.10;;;;;;;;;;103948;1290;544882;-71
2024/04/07 13:33:26;;;;;;;4.20;2.00;;;;;;;;;;103819;1289;545729;-76
2024/04/07 13:37:04;;;;;;;6.30;2.00;;;;;;;;;;103573;1291;545811;-72
2024/04/07 13:40:40;;;;;;;11.50;3.00;;;;;;;;;;103677;1292;544905;-73
2024/04/07 13:44:18;;;;;;;9.00;4.70;;;;;;;;;;104107;1288;544986;-76
2024/04/07 13:47:52;;;;;;;6.10;2.60;;;;;;;;;;103651;1292;544988;-73
2024/04/07 13:51:33;;;;;;;6.40;2.20;;;;;;;;;;103687;1292;545204;-83
2024/04/07 13:55:10;;;;;;;7.90;4.10;;;;;;;;;;103727;1292;544805;-75
2024/04/07 13:58:47;;;;;;;10.00;5.50;;;;;;;;;;103658;1292;546028;-73
2024/04/07 14:02:25;;;;;;;7.00;2.60;;;;;;;;;;105090;1282;544895;-72
2024/04/07 14:06:03;;;;;;;7.70;3.90;;;;;;;;;;103731;1291;545627;-75
2024/04/07 14:09:40;;;;;;;15.10;8.90;;;;;;;;;;103739;1294;545579;-79
2024/04/07 14:13:14;;;;;;;12.30;7.80;;;;;;;;;;103715;1292;544838;-75
2024/04/07 14:16:55;;;;;;;20.70;10.40;;;;;;;;;;103763;1291;545233;-74
2024/04/07 14:20:33;;;;;;;7.70;3.90;;;;;;;;;;103971;1292;545444;-70
2024/04/07 14:24:11;;;;;;;9.30;4.40;;;;;;;;;;103675;1294;545587;-72
2024/04/07 14:27:48;;;;;;;8.60;4.40;;;;;;;;;;103652;1291;545057;-84
2024/04/07 14:31:26;;;;;;;15.60;11.80;;;;;;;;;;103723;1292;545537;-73
2024/04/07 14:35:03;;;;;;;8.90;2.80;;;;;;;;;;103838;1289;544711;-72
2024/04/07 14:38:40;;;;;;;7.40;3.20;;;;;;;;;;103888;1292;545322;-79
2024/04/07 14:42:21;;;;;;;7.00;2.80;;;;;;;;;;103780;1292;545062;-78
2024/04/07 14:45:55;;;;;;;7.70;3.10;;;;;;;;;;103815;1292;545432;-79
2024/04/07 14:49:52;;;;;;;8.80;4.60;;;;;;;;;;103688;1288;548215;-84
2024/04/07 14:53:07;;;;;;;7.40;3.30;;;;;;;;;;103840;1288;544961;-80
2024/04/07 14:56:44;;;;;;;7.80;3.60;;;;;;;;;;104095;1289;545271;-74
2024/04/07 15:00:25;;;;;;;4.70;1.80;;;;;;;;;;103744;1295;545013;-72
2024/04/07 15:04:02;;;;;;;6.30;1.80;;;;;;;;;;103725;1291;545236;-72
2024/04/07 15:07:36;;;;;;;8.10;2.20;;;;;;;;;;103849;1290;545548;-71
2024/04/07 15:11:18;;;;;;;3.60;1.60;;;;;;;;;;103760;1295;545577;-71
2024/04/07 15:14:56;;;;;;;4.70;1.60;;;;;;;;;;103712;1291;544758;-71
2024/04/07 15:18:33;;;;;;;4.10;1.90;;;;;;;;;;103745;1289;545013;-72
2024/04/07 15:22:06;;;;;;;5.30;2.40;;;;;;;;;;103853;1295;545313;-76
2024/04/07 15:25:47;;;;;;;4.10;1.50;;;;;;;;;;103838;1301;544891;-71
2024/04/07 15:29:25;;;;;;;5.00;1.90;;;;;;;;;;103624;1291;545823;-77
2024/04/07 15:33:02;;;;;;;3.80;1.80;;;;;;;;;;103847;1290;545505;-73
2024/04/07 15:36:40;;;;;;;5.00;1.90;;;;;;;;;;103720;1292;545726;-73
2024/04/07 15:40:17;;;;;;;3.80;1.70;;;;;;;;;;103721;1291;544823;-71
2024/04/07 15:43:55;;;;;;;4.20;1.80;;;;;;;;;;103814;1288;544911;-73
2024/04/07 15:47:34;;;;;;;4.10;1.50;;;;;;;;;;103823;1294;545152;-73
2024/04/07 15:51:10;;;;;;;4.30;1.80;;;;;;;;;;103709;1297;545433;-74
2024/04/07 15:54:47;;;;;;;4.10;1.90;;;;;;;;;;103918;1290;545875;-72
2024/04/07 15:58:25;;;;;;;5.20;1.90;;;;;;;;;;103903;1289;545431;-75
2024/04/07 16:02:02;;;;;;;3.50;1.70;;;;;;;;;;103811;1289;545036;-71
2024/04/07 16:05:40;;;;;;;4.30;1.60;;;;;;;;;;103694;1290;544791;-70
2024/04/07 16:09:17;;;;;;;7.70;1.90;;;;;;;;;;104091;1287;545764;-71
2024/04/07 16:12:55;;;;;;;7.00;2.40;;;;;;;;;;103773;1292;544833;-72
2024/04/07 16:16:32;;;;;;;5.30;2.00;;;;;;;;;;103951;1292;546185;-81
2024/04/07 16:20:10;;;;;;;5.50;2.80;;;;;;;;;;104684;1291;545690;-71
2024/04/07 16:23:47;;;;;;;5.60;2.30;;;;;;;;;;103919;1293;545117;-71
2024/04/07 16:27:25;;;;;;;4.50;1.80;;;;;;;;;;103745;1291;544971;-72
2024/04/07 16:31:02;;;;;;;8.30;2.00;;;;;;;;;;103753;1292;544741;-75
2024/04/07 16:34:40;;;;;;;5.10;1.70;;;;;;;;;;103772;1291;545283;-77
2024/04/07 16:38:17;;;;;;;4.20;1.70;;;;;;;;;;104151;1287;545135;-73
2024/04/07 16:41:54;;;;;;;5.50;2.00;;;;;;;;;;103794;1289;545247;-76
2024/04/07 16:45:32;;;;;;;5.70;2.40;;;;;;;;;;103825;1295;545381;-75
2024/04/07 16:49:12;;;;;;;5.10;1.90;;;;;;;;;;103795;1292;546464;-71
2024/04/07 16:52:47;;;;;;;4.60;2.00;;;;;;;;;;103795;1289;545100;-71
2024/04/07 16:56:21;;;;;;;4.30;2.00;;;;;;;;;;103694;1291;545673;-70
2024/04/07 17:00:03;;;;;;;5.80;1.80;;;;;;;;;;103754;1289;544934;-71
2024/04/07 17:03:36;;;;;;;3.50;1.50;;;;;;;;;;103851;1293;545962;-77
2024/04/07 17:07:17;;;;;;;5.00;2.00;;;;;;;;;;103777;1291;545874;-74
2024/04/07 17:10:55;;;;;;;8.60;2.90;;;;;;;;;;103830;1289;545751;-72
2024/04/07 17:14:32;;;;;;;5.50;2.10;;;;;;;;;;103653;1292;545000;-75
2024/04/07 17:18:09;;;;;;;5.80;2.10;;;;;;;;;;104453;1286;545104;-71
2024/04/07 17:21:47;;;;;;;7.60;2.40;;;;;;;;;;103694;1289;545915;-71
2024/04/07 17:25:25;;;;;;;7.00;2.20;;;;;;;;;;103708;1292;545931;-71
2024/04/07 17:29:02;;;;;;;8.10;3.10;;;;;;;;;;104297;1292;544766;-79
2024/04/07 17:32:39;;;;;;;5.80;1.90;;;;;;;;;;103672;1291;547367;-72
2024/04/07 17:36:17;;;;;;;6.80;2.50;;;;;;;;;;103786;1289;544941;-71
2024/04/07 17:39:54;;;;;;;7.70;2.20;;;;;;;;;;103822;1289;544955;-71
2024/04/07 17:43:32;;;;;;;7.20;2.30;;;;;;;;;;104084;1289;545177;-70
2024/04/07 17:47:10;;;;;;;5.90;2.00;;;;;;;;;;103821;1291;544989;-75
2024/04/07 17:50:43;;;;;;;7.10;2.40;;;;;;;;;;103920;1292;545691;-69
2024/04/07 17:54:24;;;;;;;8.00;3.10;;;;;;;;;;103907;1289;545945;-69
2024/04/07 17:58:02;;;;;;;14.00;4.30;;;;;;;;;;103803;1298;545205;-71
2024/04/07 18:01:40;;;;;;;15.20;7.40;;;;;;;;;;103736;1289;545655;-71
2024/04/07 18:05:18;;;;;;;13.00;6.50;;;;;;;;;;104144;1285;547220;-75
2024/04/07 18:08:56;;;;;;;10.20;4.50;;;;;;;;;;103986;1292;545196;-75
2024/04/07 18:12:33;;;;;;;11.60;5.50;;;;;;;;;;103732;1289;545977;-73
2024/04/07 18:16:09;;;;;;;13.90;6.50;;;;;;;;;;103713;1290;544801;-71
2024/04/07 18:19:47;;;;;;;21.50;13.40;;;;;;;;;;103873;1290;545665;-78
2024/04/07 18:23:25;;;;;;;19.00;8.90;;;;;;;;;;103783;1291;544817;-70
2024/04/07 18:27:02;;;;;;;54.00;11.00;;;;;;;;;;103870;1289;544833;-70
2024/04/07 18:30:39;;;;;;;45.70;12.40;;;;;;;;;;103892;1289;544787;-74
2024/04/07 18:34:17;;;;;;;42.00;10.00;;;;;;;;;;103705;1294;545879;-72
2024/04/07 18:37:55;;;;;;;45.50;13.00;;;;;;;;;;103807;1292;544982;-70
2024/04/07 18:41:32;;;;;;;26.10;9.10;;;;;;;;;;103962;1288;545135;-70
2024/04/07 18:45:09;;;;;;;23.90;6.40;;;;;;;;;;103796;1293;545279;-71
2024/04/07 18:48:46;;;;;;;34.30;6.70;;;;;;;;;;104566;1282;545505;-70
2024/04/07 18:52:24;;;;;;;19.60;4.40;;;;;;;;;;103769;1292;548014;-77
2024/04/07 18:56:01;;;;;;;13.20;3.90;;;;;;;;;;103788;1291;544796;-71
2024/04/07 18:59:40;;;;;;;18.90;4.80;;;;;;;;;;103675;1291;545872;-74
2024/04/07 19:03:14;;;;;;;15.60;4.70;;;;;;;;;;103837;1293;545372;-78
2024/04/07 19:06:58;;;;;;;19.30;5.10;;;;;;;;;;103668;1295;545600;-71
2024/04/07 19:10:33;;;;;;;15.60;6.70;;;;;;;;;;104084;1286;545189;-70
2024/04/07 19:14:09;;;;;;;14.00;5.90;;;;;;;;;;103948;1288;544749;-70
2024/04/07 19:17:47;;;;;;;10.80;4.80;;;;;;;;;;103823;1289;545095;-71
2024/04/07 19:21:26;;;;;;;10.70;4.30;;;;;;;;;;103775;1291;545035;-70
2024/04/07 19:25:01;;;;;;;10.50;3.70;;;;;;;;;;103796;1293;545162;-70
2024/04/07 19:28:42;;;;;;;8.10;3.20;;;;;;;;;;103884;1289;545028;-73
2024/04/07 19:32:17;;;;;;;6.80;2.70;;;;;;;;;;103752;1289;545733;-70
2024/04/07 19:35:55;;;;;;;8.30;2.90;;;;;;;;;;103758;1292;546072;-70
2024/04/07 19:39:31;;;;;;;8.60;3.60;;;;;;;;;;103730;1289;544767;-70
2024/04/07 19:43:09;;;;;;;13.10;5.50;;;;;;;;;;103720;1295;545051;-72
2024/04/07 19:46:47;;;;;;;10.60;4.90;;;;;;;;;;103864;1301;544803;-73
2024/04/07 19:50:27;;;;;;;14.30;6.80;;;;;;;;;;103665;1291;545229;-71
2024/04/07 19:54:01;;;;;;;13.50;5.90;;;;;;;;;;103932;1289;545299;-78
2024/04/07 19:58:00;;;;;;;11.30;6.20;;;;;;;;;;103667;1291;545024;-75
2024/04/07 20:01:16;;;;;;;19.20;8.50;;;;;;;;;;103910;1289;544787;-69
2024/04/07 20:04:55;;;;;;;15.80;8.10;;;;;;;;;;103664;1291;545388;-70
2024/04/07 20:08:32;;;;;;;16.90;8.60;;;;;;;;;;103582;1295;545327;-74
2024/04/07 20:12:09;;;;;;;16.00;8.00;;;;;;;;;;103840;1289;544860;-74
2024/04/07 20:15:48;;;;;;;15.40;8.10;;;;;;;;;;103704;1292;545354;-71
2024/04/07 20:19:25;;;;;;;13.60;7.50;;;;;;;;;;103707;1291;546523;-72
2024/04/07 20:23:01;;;;;;;13.70;7.20;;;;;;;;;;103917;1289;545236;-70
2024/04/07 20:26:39;;;;;;;9.60;4.80;;;;;;;;;;104047;1289;544978;-70
2024/04/07 20:30:16;;;;;;;10.10;4.20;;;;;;;;;;103564;1294;545221;-70
2024/04/07 20:33:54;;;;;;;8.80;3.80;;;;;;;;;;103628;1291;545236;-73
2024/04/07 20:37:31;;;;;;;9.80;3.10;;;;;;;;;;103714;1291;545213;-74
2024/04/07 20:41:09;;;;;;;7.30;3.50;;;;;;;;;;103750;1291;545780;-70
2024/04/07 20:44:45;;;;;;;10.00;3.90;;;;;;;;;;103762;1295;544985;-71
2024/04/07 20:48:24;;;;;;;11.10;4.60;;;;;;;;;;103614;1291;545008;-71
2024/04/07 20:51:57;;;;;;;10.00;4.10;;;;;;;;;;103985;1292;545363;-74
2024/04/07 20:55:38;;;;;;;13.40;5.80;;;;;;;;;;103828;1289;546033;-69
2024/04/07 20:59:16;;;;;;;15.40;6.90;;;;;;;;;;104678;1282;545548;-70